createdAt,value
2019-01-13T00:00:11.724Z,90.49
2019-01-13T00:01:09.633Z,90.59
2019-01-13T00:02:09.646Z,90.90
2019-01-13T00:03:09.611Z,90.39
2019-01-13T00:04:09.599Z,91.11
2019-01-13T00:05:09.587Z,91.11
2019-01-13T00:06:09.578Z,90.90
2019-01-13T00:07:09.582Z,91.11
2019-01-13T00:08:09.556Z,90.90
2019-01-13T00:09:09.544Z,91.00
2019-01-13T00:10:09.532Z,90.80
2019-01-13T00:11:09.521Z,90.80
2019-01-13T00:12:09.527Z,91.52
2019-01-13T00:13:09.500Z,91.11
2019-01-13T00:14:09.557Z,90.80
2019-01-13T00:15:09.478Z,91.31
2019-01-13T00:16:09.467Z,91.52
2019-01-13T00:17:09.473Z,91.21
2019-01-13T00:18:09.445Z,91.72
2019-01-13T00:19:09.436Z,92.24
2019-01-13T00:20:09.426Z,92.03
2019-01-13T00:21:09.414Z,91.83
2019-01-13T00:22:09.420Z,91.83
2019-01-13T00:23:09.390Z,91.72
2019-01-13T00:24:09.384Z,91.62
2019-01-13T00:25:09.368Z,91.83
2019-01-13T00:26:09.368Z,91.93
2019-01-13T00:27:09.364Z,92.24
2019-01-13T00:28:09.335Z,92.24
2019-01-13T00:29:09.324Z,92.14
2019-01-13T00:30:09.313Z,92.14
2019-01-13T00:31:09.302Z,91.93
2019-01-13T00:32:09.291Z,92.14
2019-01-13T00:33:09.300Z,91.83
2019-01-13T00:34:09.270Z,91.72
2019-01-13T00:35:09.258Z,91.62
2019-01-13T00:36:09.250Z,91.83
2019-01-13T00:37:09.237Z,91.83
2019-01-13T00:38:09.245Z,91.72
2019-01-13T00:39:09.215Z,91.93
2019-01-13T00:40:09.211Z,91.93
2019-01-13T00:41:09.196Z,91.93
2019-01-13T00:42:09.182Z,91.62
2019-01-13T00:43:09.187Z,91.93
2019-01-13T00:44:09.160Z,91.83
2019-01-13T00:45:09.148Z,91.83
2019-01-13T00:46:09.137Z,91.72
2019-01-13T00:47:09.126Z,91.62
2019-01-13T00:48:09.131Z,92.44
2019-01-13T00:49:09.104Z,91.83
2019-01-13T00:50:09.094Z,91.17
2019-01-13T00:51:09.083Z,91.42
2019-01-13T00:52:09.071Z,91.11
2019-01-13T00:53:09.091Z,91.06
2019-01-13T00:54:09.057Z,90.90
2019-01-13T00:55:09.043Z,91.06
2019-01-13T00:56:09.028Z,90.69
2019-01-13T00:57:09.018Z,90.86
2019-01-13T00:58:09.006Z,90.75
2019-01-13T00:59:09.011Z,91.06
2019-01-13T01:00:08.984Z,90.75
2019-01-13T01:01:08.975Z,91.06
2019-01-13T01:02:08.970Z,91.06
2019-01-13T01:03:08.955Z,90.96
2019-01-13T01:04:08.956Z,90.96
2019-01-13T01:05:08.933Z,90.75
2019-01-13T01:06:08.921Z,90.75
2019-01-13T01:07:08.907Z,91.06
2019-01-13T01:08:08.895Z,90.96
2019-01-13T01:09:08.902Z,90.96
2019-01-13T01:10:08.874Z,90.86
2019-01-13T01:11:08.863Z,90.96
2019-01-13T01:12:08.860Z,90.66
2019-01-13T01:13:08.849Z,90.55
2019-01-13T01:14:08.860Z,90.45
2019-01-13T01:15:08.819Z,90.75
2019-01-13T01:16:08.808Z,90.66
2019-01-13T01:17:08.856Z,90.75
2019-01-13T01:18:08.787Z,90.96
2019-01-13T01:19:08.774Z,90.66
2019-01-13T01:20:08.824Z,91.17
2019-01-13T01:21:08.755Z,90.86
2019-01-13T01:22:08.741Z,90.66
2019-01-13T01:23:08.734Z,91.27
2019-01-13T01:24:08.720Z,90.96
2019-01-13T01:25:08.732Z,90.86
2019-01-13T01:26:08.698Z,90.96
2019-01-13T01:27:08.687Z,90.86
2019-01-13T01:28:08.768Z,91.47
2019-01-13T01:29:08.666Z,91.27
2019-01-13T01:30:08.673Z,90.86
2019-01-13T01:31:08.647Z,90.55
2019-01-13T01:32:08.637Z,90.66
2019-01-13T01:33:08.624Z,91.00
2019-01-13T01:34:08.611Z,90.90
2019-01-13T01:35:08.615Z,90.59
2019-01-13T01:36:08.594Z,90.45
2019-01-13T01:37:08.580Z,90.96
2019-01-13T01:38:08.568Z,90.55
2019-01-13T01:39:08.558Z,90.45
2019-01-13T01:40:08.560Z,90.55
2019-01-13T01:41:08.534Z,90.34
2019-01-13T01:42:08.526Z,90.66
2019-01-13T01:43:08.513Z,90.55
2019-01-13T01:44:08.499Z,90.03
2019-01-13T01:45:08.642Z,90.34
2019-01-13T01:46:08.479Z,90.03
2019-01-13T01:47:08.470Z,90.03
2019-01-13T01:48:08.464Z,89.94
2019-01-13T01:49:08.445Z,89.94
2019-01-13T01:50:08.434Z,90.03
2019-01-13T01:51:08.442Z,90.03
2019-01-13T01:52:08.414Z,90.03
2019-01-13T01:53:08.404Z,90.34
2019-01-13T01:54:08.394Z,90.03
2019-01-13T01:55:08.379Z,90.96
2019-01-13T01:56:08.391Z,90.75
2019-01-13T01:57:08.360Z,90.14
2019-01-13T01:58:08.347Z,89.94
2019-01-13T01:59:08.336Z,89.94
2019-01-13T02:00:08.329Z,90.03
2019-01-13T02:01:08.368Z,90.34
2019-01-13T02:02:08.304Z,90.24
2019-01-13T02:03:08.309Z,90.14
2019-01-13T02:04:08.338Z,90.03
2019-01-13T02:05:08.278Z,90.14
2019-01-13T02:06:08.278Z,90.14
2019-01-13T02:07:08.325Z,89.83
2019-01-13T02:08:08.237Z,89.73
2019-01-13T02:09:08.225Z,90.34
2019-01-13T02:10:08.223Z,90.34
2019-01-13T02:11:08.344Z,90.03
2019-01-13T02:12:08.192Z,89.83
2019-01-13T02:13:08.182Z,89.62
2019-01-13T02:14:08.172Z,89.83
2019-01-13T02:15:08.163Z,90.24
2019-01-13T02:16:08.149Z,90.34
2019-01-13T02:17:08.159Z,90.66
2019-01-13T02:18:08.128Z,90.14
2019-01-13T02:19:08.116Z,90.34
2019-01-13T02:20:08.107Z,90.03
2019-01-13T02:21:08.094Z,90.03
2019-01-13T02:22:08.100Z,90.45
2019-01-13T02:23:08.071Z,89.73
2019-01-13T02:24:08.061Z,89.83
2019-01-13T02:25:08.055Z,90.14
2019-01-13T02:26:08.041Z,89.73
2019-01-13T02:27:08.051Z,89.94
2019-01-13T02:28:08.016Z,89.73
2019-01-13T02:29:08.007Z,90.03
2019-01-13T02:30:08.010Z,89.73
2019-01-13T02:31:07.985Z,90.24
2019-01-13T02:32:08.018Z,89.83
2019-01-13T02:33:07.963Z,90.24
2019-01-13T02:34:07.952Z,90.45
2019-01-13T02:35:07.942Z,90.34
2019-01-13T02:36:07.935Z,90.66
2019-01-13T02:37:07.935Z,90.66
2019-01-13T02:38:07.911Z,89.62
2019-01-13T02:39:07.894Z,90.34
2019-01-13T02:40:07.886Z,90.34
2019-01-13T02:41:07.875Z,90.14
2019-01-13T02:42:07.880Z,89.52
2019-01-13T02:43:07.851Z,89.83
2019-01-13T02:44:07.844Z,90.14
2019-01-13T02:45:07.830Z,89.62
2019-01-13T02:46:07.828Z,90.24
2019-01-13T02:47:07.827Z,90.45
2019-01-13T02:48:07.796Z,90.24
2019-01-13T02:49:07.787Z,90.66
2019-01-13T02:50:07.776Z,90.96
2019-01-13T02:51:07.762Z,90.34
2019-01-13T02:52:07.811Z,91.06
2019-01-13T02:53:07.745Z,90.51
2019-01-13T02:54:07.733Z,90.66
2019-01-13T02:55:07.727Z,90.96
2019-01-13T02:56:07.708Z,90.66
2019-01-13T02:57:07.700Z,90.96
2019-01-13T02:58:07.710Z,91.11
2019-01-13T02:59:07.676Z,90.86
2019-01-13T03:00:07.666Z,91.27
2019-01-13T03:01:07.658Z,90.66
2019-01-13T03:02:07.644Z,91.47
2019-01-13T03:03:07.655Z,91.47
2019-01-13T03:04:07.623Z,90.55
2019-01-13T03:05:07.609Z,90.86
2019-01-13T03:06:07.601Z,90.86
2019-01-13T03:07:07.597Z,90.66
2019-01-13T03:08:07.597Z,90.66
2019-01-13T03:09:07.565Z,91.06
2019-01-13T03:10:07.555Z,90.66
2019-01-13T03:11:07.547Z,90.55
2019-01-13T03:12:07.619Z,90.75
2019-01-13T03:13:07.647Z,90.75
2019-01-13T03:14:07.512Z,90.61
2019-01-13T03:15:07.501Z,90.55
2019-01-13T03:16:07.492Z,90.96
2019-01-13T03:17:07.478Z,91.47
2019-01-13T03:18:07.471Z,91.38
2019-01-13T03:19:07.474Z,91.68
2019-01-13T03:20:07.455Z,92.30
2019-01-13T03:21:07.435Z,91.78
2019-01-13T03:22:07.435Z,91.78
2019-01-13T03:23:07.413Z,92.65
2019-01-13T03:24:07.423Z,92.76
2019-01-13T03:25:07.392Z,92.30
2019-01-13T03:26:07.379Z,92.03
2019-01-13T03:27:07.370Z,92.03
2019-01-13T03:28:07.357Z,92.61
2019-01-13T03:29:07.365Z,92.71
2019-01-13T03:30:07.336Z,93.06
2019-01-13T03:31:12.216Z,92.86
2019-01-13T03:32:07.318Z,92.44
2019-01-13T03:33:07.302Z,92.82
2019-01-13T03:34:07.309Z,92.86
2019-01-13T03:35:07.281Z,92.92
2019-01-13T03:36:07.301Z,92.92
2019-01-13T03:37:07.257Z,93.12
2019-01-13T03:38:07.250Z,93.12
2019-01-13T03:39:07.255Z,92.82
2019-01-13T03:40:07.227Z,92.44
2019-01-13T03:41:07.213Z,92.76
2019-01-13T03:42:07.204Z,92.86
2019-01-13T03:43:07.214Z,93.16
2019-01-13T03:44:07.207Z,93.27
2019-01-13T03:45:07.177Z,93.27
2019-01-13T03:46:07.164Z,92.96
2019-01-13T03:47:07.149Z,93.27
2019-01-13T03:48:07.138Z,93.06
2019-01-13T03:49:07.125Z,93.37
2019-01-13T03:50:07.132Z,92.96
2019-01-13T03:51:07.104Z,93.33
2019-01-13T03:52:07.096Z,93.27
2019-01-13T03:53:07.081Z,93.37
2019-01-13T03:54:07.070Z,92.96
2019-01-13T03:55:07.078Z,93.27
2019-01-13T03:56:07.052Z,93.37
2019-01-13T03:57:07.036Z,92.96
2019-01-13T03:58:07.026Z,93.99
2019-01-13T03:59:07.018Z,93.27
2019-01-13T04:00:07.021Z,93.37
2019-01-13T04:01:06.996Z,93.58
2019-01-13T04:02:06.983Z,93.27
2019-01-13T04:03:06.991Z,93.58
2019-01-13T04:04:06.963Z,93.58
2019-01-13T04:05:06.964Z,94.15
2019-01-13T04:06:06.963Z,94.20
2019-01-13T04:07:06.927Z,93.99
2019-01-13T04:08:06.922Z,94.09
2019-01-13T04:09:06.911Z,93.99
2019-01-13T04:10:06.915Z,93.58
2019-01-13T04:11:06.883Z,94.09
2019-01-13T04:12:06.872Z,93.88
2019-01-13T04:13:06.863Z,93.99
2019-01-13T04:14:06.852Z,93.99
2019-01-13T04:15:06.874Z,94.60
2019-01-13T04:16:06.827Z,94.09
2019-01-13T04:17:06.817Z,94.09
2019-01-13T04:18:06.806Z,93.88
2019-01-13T04:19:06.835Z,94.30
2019-01-13T04:20:06.783Z,94.09
2019-01-13T04:21:06.799Z,94.09
2019-01-13T04:22:06.765Z,94.40
2019-01-13T04:23:06.762Z,94.09
2019-01-13T04:24:06.740Z,93.99
2019-01-13T04:25:06.731Z,94.20
2019-01-13T04:26:06.736Z,93.99
2019-01-13T04:27:06.708Z,94.40
2019-01-13T04:28:06.700Z,94.60
2019-01-13T04:29:06.685Z,94.71
2019-01-13T04:30:06.681Z,93.99
2019-01-13T04:31:06.688Z,94.20
2019-01-13T04:32:06.650Z,94.40
2019-01-13T04:33:06.646Z,94.20
2019-01-13T04:34:06.629Z,94.30
2019-01-13T04:35:06.617Z,94.40
2019-01-13T04:36:06.623Z,94.40
2019-01-13T04:37:06.598Z,93.79
2019-01-13T04:38:06.583Z,94.30
2019-01-13T04:39:06.576Z,94.20
2019-01-13T04:40:06.562Z,94.40
2019-01-13T04:41:06.579Z,94.09
2019-01-13T04:42:06.539Z,93.95
2019-01-13T04:43:06.534Z,94.40
2019-01-13T04:44:06.525Z,93.79
2019-01-13T04:45:06.506Z,94.30
2019-01-13T04:46:06.497Z,94.30
2019-01-13T04:47:06.502Z,94.36
2019-01-13T04:48:06.474Z,94.05
2019-01-13T04:49:06.469Z,93.74
2019-01-13T04:50:06.452Z,93.79
2019-01-13T04:51:06.462Z,94.15
2019-01-13T04:52:06.450Z,93.64
2019-01-13T04:53:06.427Z,93.88
2019-01-13T04:54:06.445Z,93.88
2019-01-13T04:55:06.397Z,93.84
2019-01-13T04:56:06.388Z,93.54
2019-01-13T04:57:06.393Z,93.06
2019-01-13T04:58:06.376Z,93.33
2019-01-13T04:59:06.355Z,93.33
2019-01-13T05:00:06.341Z,93.02
2019-01-13T05:01:06.330Z,93.27
2019-01-13T05:02:06.339Z,93.88
2019-01-13T05:03:06.308Z,93.95
2019-01-13T05:04:06.297Z,93.54
2019-01-13T05:05:06.296Z,93.06
2019-01-13T05:06:06.318Z,93.12
2019-01-13T05:07:06.299Z,93.02
2019-01-13T05:08:06.254Z,93.23
2019-01-13T05:09:06.241Z,93.16
2019-01-13T05:10:06.232Z,93.02
2019-01-13T05:11:06.228Z,93.43
2019-01-13T05:12:06.239Z,93.23
2019-01-13T05:13:06.221Z,93.02
2019-01-13T05:14:06.187Z,92.96
2019-01-13T05:15:06.177Z,93.02
2019-01-13T05:16:06.170Z,93.37
2019-01-13T05:17:06.157Z,93.37
2019-01-13T05:18:06.166Z,93.06
2019-01-13T05:19:06.132Z,93.54
2019-01-13T05:20:06.121Z,93.37
2019-01-13T05:21:06.111Z,93.33
2019-01-13T05:22:06.107Z,92.50
2019-01-13T05:23:06.106Z,92.30
2019-01-13T05:24:06.085Z,92.71
2019-01-13T05:25:06.068Z,93.12
2019-01-13T05:26:06.057Z,92.82
2019-01-13T05:27:06.043Z,92.82
2019-01-13T05:28:06.051Z,92.96
2019-01-13T05:29:06.037Z,92.86
2019-01-13T05:30:06.011Z,92.71
2019-01-13T05:31:06.000Z,92.76
2019-01-13T05:32:05.988Z,92.65
2019-01-13T05:33:06.021Z,92.71
2019-01-13T05:34:05.970Z,92.71
2019-01-13T05:35:06.000Z,92.71
2019-01-13T05:36:05.945Z,93.12
2019-01-13T05:37:05.933Z,92.82
2019-01-13T05:38:06.129Z,93.02
2019-01-13T05:39:05.913Z,93.12
2019-01-13T05:40:05.902Z,92.50
2019-01-13T05:41:05.919Z,92.61
2019-01-13T05:42:05.896Z,92.50
2019-01-13T05:43:05.868Z,92.30
2019-01-13T05:44:05.877Z,92.82
2019-01-13T05:45:05.850Z,93.12
2019-01-13T05:46:05.838Z,92.30
2019-01-13T05:47:05.824Z,92.10
2019-01-13T05:48:05.813Z,93.02
2019-01-13T05:49:05.820Z,92.20
2019-01-13T05:50:05.791Z,92.61
2019-01-13T05:51:05.784Z,92.40
2019-01-13T05:52:05.779Z,92.82
2019-01-13T05:53:05.766Z,92.61
2019-01-13T05:54:05.769Z,92.61
2019-01-13T05:55:05.739Z,92.71
2019-01-13T05:56:05.727Z,92.50
2019-01-13T05:57:05.731Z,92.71
2019-01-13T05:58:05.708Z,92.71
2019-01-13T05:59:05.713Z,92.71
2019-01-13T06:00:05.682Z,92.50
2019-01-13T06:01:05.669Z,92.50
2019-01-13T06:02:05.659Z,91.99
2019-01-13T06:03:05.657Z,91.68
2019-01-13T06:04:05.690Z,91.89
2019-01-13T06:05:05.626Z,91.78
2019-01-13T06:06:05.613Z,91.68
2019-01-13T06:07:05.604Z,91.68
2019-01-13T06:08:05.592Z,91.85
2019-01-13T06:09:05.607Z,91.78
2019-01-13T06:10:05.571Z,91.68
2019-01-13T06:11:05.561Z,91.89
2019-01-13T06:12:05.552Z,91.99
2019-01-13T06:13:05.541Z,92.16
2019-01-13T06:14:05.528Z,91.64
2019-01-13T06:15:05.592Z,91.64
2019-01-13T06:16:05.511Z,91.85
2019-01-13T06:17:05.497Z,92.25
2019-01-13T06:18:05.503Z,92.05
2019-01-13T06:19:05.477Z,91.85
2019-01-13T06:20:05.481Z,91.85
2019-01-13T06:21:05.454Z,92.16
2019-01-13T06:22:05.506Z,92.25
2019-01-13T06:23:05.431Z,91.85
2019-01-13T06:24:05.420Z,92.05
2019-01-13T06:25:05.437Z,92.05
2019-01-13T06:26:05.397Z,92.16
2019-01-13T06:27:05.388Z,91.74
2019-01-13T06:28:05.380Z,91.74
2019-01-13T06:29:05.365Z,91.74
2019-01-13T06:30:05.377Z,91.74
2019-01-13T06:31:05.342Z,91.74
2019-01-13T06:32:05.333Z,91.78
2019-01-13T06:33:05.320Z,91.53
2019-01-13T06:34:05.306Z,92.25
2019-01-13T06:35:05.295Z,92.25
2019-01-13T06:36:05.301Z,92.67
2019-01-13T06:37:05.273Z,91.85
2019-01-13T06:38:06.269Z,91.74
2019-01-13T06:39:05.250Z,91.74
2019-01-13T06:40:05.240Z,92.16
2019-01-13T06:41:05.248Z,92.57
2019-01-13T06:42:05.220Z,91.74
2019-01-13T06:43:05.206Z,91.95
2019-01-13T06:44:05.197Z,92.36
2019-01-13T06:45:05.185Z,92.67
2019-01-13T06:46:05.192Z,91.95
2019-01-13T06:47:05.163Z,92.46
2019-01-13T06:48:05.154Z,92.67
2019-01-13T06:49:05.140Z,92.57
2019-01-13T06:50:05.131Z,92.97
2019-01-13T06:51:05.197Z,92.77
2019-01-13T06:52:05.108Z,92.57
2019-01-13T06:53:05.099Z,92.05
2019-01-13T06:54:16.969Z,92.87
2019-01-13T06:55:05.076Z,92.57
2019-01-13T06:56:05.100Z,92.67
2019-01-13T06:57:05.054Z,92.46
2019-01-13T06:58:05.040Z,92.77
2019-01-13T06:59:05.038Z,92.87
2019-01-13T07:00:05.020Z,92.97
2019-01-13T07:01:05.021Z,93.08
2019-01-13T07:02:05.013Z,93.59
2019-01-13T07:03:04.985Z,92.87
2019-01-13T07:04:04.976Z,92.77
2019-01-13T07:05:04.967Z,92.87
2019-01-13T07:06:04.957Z,92.97
2019-01-13T07:07:04.959Z,93.18
2019-01-13T07:08:04.940Z,93.18
2019-01-13T07:09:04.922Z,92.97
2019-01-13T07:10:04.913Z,93.18
2019-01-13T07:11:04.900Z,93.80
2019-01-13T07:12:04.913Z,93.80
2019-01-13T07:13:58.812Z,93.18
2019-01-13T07:14:58.801Z,92.97
2019-01-13T07:15:58.785Z,93.49
2019-01-13T07:16:58.794Z,93.70
2019-01-13T07:17:58.766Z,94.01
2019-01-13T07:18:58.753Z,93.90
2019-01-13T07:19:58.752Z,93.59
2019-01-13T07:20:58.731Z,93.59
2019-01-13T07:21:58.759Z,93.90
2019-01-13T07:22:58.710Z,93.90
2019-01-13T07:23:58.700Z,93.59
2019-01-13T07:24:58.687Z,93.55
2019-01-13T07:25:58.681Z,93.90
2019-01-13T07:26:58.666Z,93.90
2019-01-13T07:27:58.670Z,93.39
2019-01-13T07:28:58.642Z,93.70
2019-01-13T07:29:58.644Z,93.86
2019-01-13T07:30:58.625Z,94.11
2019-01-13T07:31:58.612Z,93.76
2019-01-13T07:32:58.624Z,93.70
2019-01-13T07:33:58.591Z,94.11
2019-01-13T07:34:58.579Z,94.11
2019-01-13T07:36:07.411Z,94.07
2019-01-13T07:36:58.557Z,93.59
2019-01-13T07:37:58.568Z,93.90
2019-01-13T07:38:58.533Z,94.52
2019-01-13T07:39:58.521Z,94.01
2019-01-13T07:40:58.513Z,93.90
2019-01-13T07:41:58.499Z,94.21
2019-01-13T07:42:58.603Z,94.01
2019-01-13T07:43:58.478Z,93.65
2019-01-13T07:44:58.466Z,93.70
2019-01-13T07:45:58.456Z,94.17
2019-01-13T07:46:58.449Z,94.01
2019-01-13T07:47:58.434Z,94.21
2019-01-13T07:48:58.438Z,93.96
2019-01-13T07:49:58.417Z,94.21
2019-01-13T07:50:58.400Z,93.86
2019-01-13T07:52:07.506Z,93.86
2019-01-13T07:52:58.379Z,94.37
2019-01-13T07:53:58.403Z,93.96
2019-01-13T07:54:58.358Z,94.27
2019-01-13T07:55:58.346Z,93.96
2019-01-13T07:56:58.334Z,94.07
2019-01-13T07:58:07.784Z,93.65
2019-01-13T07:58:58.332Z,94.07
2019-01-13T07:59:58.305Z,94.07
2019-01-13T08:00:58.301Z,93.76
2019-01-13T08:01:58.280Z,93.44
2019-01-13T08:02:58.269Z,94.37
2019-01-13T08:03:58.275Z,93.55
2019-01-13T08:04:58.297Z,93.76
2019-01-13T08:05:58.241Z,94.07
2019-01-13T08:06:58.225Z,93.86
2019-01-13T08:08:07.295Z,93.86
2019-01-13T08:08:58.278Z,94.17
2019-01-13T08:09:58.193Z,94.17
2019-01-13T08:10:58.185Z,93.86
2019-01-13T08:11:58.179Z,94.27
2019-01-13T08:12:58.161Z,93.96
2019-01-13T08:14:06.733Z,94.48
2019-01-13T08:14:58.139Z,93.44
2019-01-13T08:15:58.129Z,94.07
2019-01-13T08:16:58.116Z,93.82
2019-01-13T08:17:58.126Z,94.23
2019-01-13T08:18:58.127Z,93.96
2019-01-13T08:19:58.101Z,94.07
2019-01-13T08:20:58.070Z,94.12
2019-01-13T08:21:58.063Z,94.27
2019-01-13T08:22:58.050Z,93.82
2019-01-13T08:23:58.038Z,94.23
2019-01-13T08:24:58.045Z,93.92
2019-01-13T08:25:58.091Z,94.23
2019-01-13T08:26:58.163Z,94.33
2019-01-13T08:27:57.994Z,94.02
2019-01-13T08:28:57.987Z,93.71
2019-01-13T08:29:58.000Z,94.02
2019-01-13T08:30:57.960Z,94.02
2019-01-13T08:31:57.950Z,93.71
2019-01-13T08:32:57.939Z,93.82
2019-01-13T08:33:57.935Z,94.12
2019-01-13T08:34:57.919Z,93.92
2019-01-13T08:35:57.925Z,93.92
2019-01-13T08:36:57.894Z,93.71
2019-01-13T08:37:57.884Z,94.02
2019-01-13T08:38:57.872Z,94.29
2019-01-13T08:39:57.863Z,93.67
2019-01-13T08:40:57.874Z,94.29
2019-01-13T08:41:57.840Z,94.08
2019-01-13T08:42:57.989Z,93.82
2019-01-13T08:43:57.824Z,93.82
2019-01-13T08:44:57.806Z,93.46
2019-01-13T08:45:57.818Z,93.67
2019-01-13T08:46:57.982Z,93.67
2019-01-13T08:47:57.776Z,94.12
2019-01-13T08:48:57.762Z,94.08
2019-01-13T08:49:57.752Z,94.02
2019-01-13T08:50:57.758Z,94.08
2019-01-13T08:51:57.729Z,94.08
2019-01-13T08:52:57.719Z,93.61
2019-01-13T08:53:57.707Z,94.29
2019-01-13T08:54:57.696Z,93.98
2019-01-13T08:55:57.703Z,94.18
2019-01-13T08:56:57.677Z,93.87
2019-01-13T08:57:57.662Z,93.77
2019-01-13T08:58:57.651Z,93.77
2019-01-13T08:59:57.640Z,93.77
2019-01-13T09:00:57.645Z,93.77
2019-01-13T09:01:57.620Z,94.08
2019-01-13T09:02:57.606Z,94.18
2019-01-13T09:03:57.597Z,93.77
2019-01-13T09:04:57.585Z,93.87
2019-01-13T09:05:57.590Z,94.29
2019-01-13T09:06:57.562Z,94.08
2019-01-13T09:07:57.553Z,94.18
2019-01-13T09:08:57.541Z,93.87
2019-01-13T09:09:57.530Z,93.77
2019-01-13T09:10:57.548Z,94.39
2019-01-13T09:11:57.507Z,93.98
2019-01-13T09:12:57.498Z,94.18
2019-01-13T09:13:57.485Z,94.39
2019-01-13T09:14:57.482Z,94.29
2019-01-13T09:15:57.463Z,94.18
2019-01-13T09:16:57.470Z,94.29
2019-01-13T09:17:57.447Z,95.01
2019-01-13T09:18:57.437Z,94.90
2019-01-13T09:19:57.422Z,94.70
2019-01-13T09:20:57.408Z,94.59
2019-01-13T09:21:57.417Z,94.49
2019-01-13T09:22:57.390Z,93.98
2019-01-13T09:23:57.376Z,94.29
2019-01-13T09:24:57.366Z,94.29
2019-01-13T09:25:57.354Z,94.18
2019-01-13T09:26:57.360Z,94.29
2019-01-13T09:27:57.332Z,93.87
2019-01-13T09:28:57.322Z,94.29
2019-01-13T09:29:57.313Z,93.98
2019-01-13T09:30:57.305Z,94.18
2019-01-13T09:31:57.318Z,93.98
2019-01-13T09:32:57.276Z,94.80
2019-01-13T09:33:57.265Z,94.24
2019-01-13T09:34:57.256Z,94.39
2019-01-13T09:35:57.244Z,94.29
2019-01-13T09:36:57.252Z,94.39
2019-01-13T09:37:57.222Z,94.08
2019-01-13T09:38:57.244Z,94.29
2019-01-13T09:39:57.255Z,93.98
2019-01-13T09:40:57.189Z,93.93
2019-01-13T09:41:57.202Z,94.14
2019-01-13T09:42:57.178Z,94.29
2019-01-13T09:43:57.155Z,94.34
2019-01-13T09:44:57.143Z,94.08
2019-01-13T09:45:57.133Z,94.90
2019-01-13T09:46:57.139Z,94.39
2019-01-13T09:47:57.113Z,93.93
2019-01-13T09:48:57.104Z,94.59
2019-01-13T09:49:57.090Z,94.65
2019-01-13T09:50:57.079Z,94.34
2019-01-13T09:51:57.095Z,94.24
2019-01-13T09:52:57.055Z,94.14
2019-01-13T09:53:57.047Z,94.24
2019-01-13T09:54:57.037Z,94.76
2019-01-13T09:55:57.022Z,94.34
2019-01-13T09:56:57.016Z,94.29
2019-01-13T09:57:57.017Z,94.49
2019-01-13T09:58:56.990Z,94.24
2019-01-13T09:59:56.986Z,94.34
2019-01-13T10:00:56.968Z,94.29
2019-01-13T10:01:56.966Z,94.34
2019-01-13T10:02:56.963Z,94.18
2019-01-13T10:03:56.972Z,94.24
2019-01-13T10:04:56.924Z,94.24
2019-01-13T10:05:56.913Z,94.34
2019-01-13T10:06:56.901Z,94.24
2019-01-13T10:07:56.911Z,94.34
2019-01-13T10:08:56.882Z,94.24
2019-01-13T10:09:56.870Z,93.73
2019-01-13T10:10:56.858Z,94.04
2019-01-13T10:11:56.849Z,94.34
2019-01-13T10:12:56.851Z,94.96
2019-01-13T10:13:56.827Z,94.04
2019-01-13T10:15:05.281Z,93.93
2019-01-13T10:15:56.803Z,94.14
2019-01-13T10:16:56.791Z,93.73
2019-01-13T10:17:56.883Z,94.14
2019-01-13T10:19:05.534Z,94.34
2019-01-13T10:19:56.815Z,94.34
2019-01-13T10:20:56.754Z,94.14
2019-01-13T10:21:56.736Z,94.96
2019-01-13T10:22:56.746Z,94.24
2019-01-13T10:23:56.717Z,94.24
2019-01-13T10:24:56.703Z,94.24
2019-01-13T10:25:56.691Z,94.14
2019-01-13T10:26:56.683Z,94.55
2019-01-13T10:27:56.686Z,94.85
2019-01-13T10:28:56.663Z,94.65
2019-01-13T10:29:56.648Z,95.68
2019-01-13T10:31:03.017Z,94.85
2019-01-13T10:31:56.628Z,94.76
2019-01-13T10:32:56.636Z,94.76
2019-01-13T10:33:56.603Z,94.65
2019-01-13T10:34:56.593Z,94.65
2019-01-13T10:35:56.583Z,94.45
2019-01-13T10:36:56.578Z,94.85
2019-01-13T10:37:56.580Z,94.85
2019-01-13T10:38:56.548Z,94.14
2019-01-13T10:39:56.537Z,94.96
2019-01-13T10:40:56.527Z,94.96
2019-01-13T10:41:56.515Z,94.85
2019-01-13T10:42:56.552Z,94.55
2019-01-13T10:43:56.524Z,94.65
2019-01-13T10:44:56.482Z,94.96
2019-01-13T10:45:56.474Z,95.06
2019-01-13T10:46:56.461Z,94.45
2019-01-13T10:47:56.463Z,94.76
2019-01-13T10:48:56.462Z,95.17
2019-01-13T10:49:56.426Z,94.85
2019-01-13T10:50:56.416Z,95.17
2019-01-13T10:51:56.405Z,94.65
2019-01-13T10:52:56.397Z,94.45
2019-01-13T10:53:56.441Z,94.45
2019-01-13T10:54:56.371Z,94.45
2019-01-13T10:55:56.365Z,94.65
2019-01-13T10:56:56.351Z,94.96
2019-01-13T10:57:56.342Z,95.10
2019-01-13T10:58:56.344Z,94.96
2019-01-13T10:59:56.358Z,94.96
2019-01-13T11:00:56.309Z,94.24
2019-01-13T11:01:56.298Z,95.17
2019-01-13T11:03:02.009Z,94.45
2019-01-13T11:03:56.292Z,94.96
2019-01-13T11:04:56.264Z,94.55
2019-01-13T11:05:56.251Z,94.45
2019-01-13T11:06:56.241Z,94.96
2019-01-13T11:07:56.229Z,94.24
2019-01-13T11:08:56.258Z,94.34
2019-01-13T11:09:56.207Z,94.04
2019-01-13T11:10:56.197Z,94.24
2019-01-13T11:11:56.187Z,94.24
2019-01-13T11:12:56.173Z,94.55
2019-01-13T11:13:56.184Z,94.65
2019-01-13T11:14:56.151Z,95.06
2019-01-13T11:15:56.141Z,94.55
2019-01-13T11:16:56.134Z,94.96
2019-01-13T11:17:56.131Z,94.55
2019-01-13T11:18:57.442Z,94.96
2019-01-13T11:19:56.097Z,94.24
2019-01-13T11:20:56.088Z,94.14
2019-01-13T11:21:56.078Z,94.14
2019-01-13T11:22:56.064Z,94.96
2019-01-13T11:23:56.076Z,94.96
2019-01-13T11:24:56.041Z,94.34
2019-01-13T11:25:56.035Z,94.14
2019-01-13T11:26:56.020Z,95.06
2019-01-13T11:27:56.012Z,94.96
2019-01-13T11:28:56.015Z,94.24
2019-01-13T11:29:55.988Z,94.55
2019-01-13T11:30:55.984Z,94.65
2019-01-13T11:31:55.966Z,94.85
2019-01-13T11:32:55.955Z,94.65
2019-01-13T11:33:55.962Z,94.96
2019-01-13T11:34:55.932Z,94.85
2019-01-13T11:35:55.923Z,94.85
2019-01-13T11:36:55.908Z,94.85
2019-01-13T11:37:55.953Z,94.34
2019-01-13T11:38:55.944Z,94.55
2019-01-13T11:39:55.877Z,94.76
2019-01-13T11:40:55.866Z,94.55
2019-01-13T11:41:55.855Z,94.81
2019-01-13T11:42:55.849Z,95.17
2019-01-13T11:43:55.833Z,94.61
2019-01-13T11:44:55.837Z,94.45
2019-01-13T11:45:55.810Z,94.65
2019-01-13T11:46:55.801Z,95.12
2019-01-13T11:47:55.787Z,94.96
2019-01-13T11:48:55.779Z,94.30
2019-01-13T11:49:55.781Z,94.81
2019-01-13T11:50:55.755Z,94.71
2019-01-13T11:52:04.110Z,94.51
2019-01-13T11:52:55.732Z,94.92
2019-01-13T11:54:04.561Z,95.17
2019-01-13T11:54:55.711Z,94.71
2019-01-13T11:55:55.701Z,94.10
2019-01-13T11:56:55.691Z,94.51
2019-01-13T11:57:55.680Z,94.40
2019-01-13T11:58:55.672Z,94.10
2019-01-13T11:59:55.678Z,94.20
2019-01-13T12:00:55.643Z,94.20
2019-01-13T12:01:55.632Z,94.14
2019-01-13T12:02:55.627Z,94.30
2019-01-13T12:03:55.616Z,94.85
2019-01-13T12:04:55.618Z,94.55
2019-01-13T12:05:55.591Z,95.17
2019-01-13T12:06:55.580Z,94.55
2019-01-13T12:07:55.573Z,94.85
2019-01-13T12:08:55.560Z,95.57
2019-01-13T12:10:03.982Z,94.65
2019-01-13T12:10:55.538Z,94.85
2019-01-13T12:11:55.708Z,95.17
2019-01-13T12:12:55.608Z,95.06
2019-01-13T12:13:55.502Z,95.06
2019-01-13T12:14:55.515Z,95.06
2019-01-13T12:15:55.486Z,94.55
2019-01-13T12:16:55.469Z,94.40
2019-01-13T12:17:55.460Z,94.20
2019-01-13T12:18:55.510Z,94.40
2019-01-13T12:19:55.453Z,94.20
2019-01-13T12:20:55.433Z,94.10
2019-01-13T12:21:56.056Z,93.99
2019-01-13T12:22:55.415Z,94.40
2019-01-13T12:23:55.768Z,93.99
2019-01-13T12:25:04.547Z,94.85
2019-01-13T12:25:55.380Z,94.24
2019-01-13T12:26:55.364Z,94.24
2019-01-13T12:27:55.346Z,94.24
2019-01-13T12:28:55.340Z,94.24
2019-01-13T12:29:55.342Z,94.30
2019-01-13T12:30:55.314Z,94.30
2019-01-13T12:31:55.306Z,94.45
2019-01-13T12:32:55.291Z,94.14
2019-01-13T12:33:55.280Z,94.20
2019-01-13T12:34:55.300Z,93.73
2019-01-13T12:35:55.259Z,93.83
2019-01-13T12:36:55.249Z,94.30
2019-01-13T12:37:55.238Z,94.20
2019-01-13T12:38:55.230Z,93.79
2019-01-13T12:39:55.213Z,93.68
2019-01-13T12:40:55.250Z,93.59
2019-01-13T12:41:55.196Z,93.59
2019-01-13T12:42:55.183Z,93.93
2019-01-13T12:43:55.170Z,93.99
2019-01-13T12:44:55.160Z,93.68
2019-01-13T12:45:55.168Z,94.40
2019-01-13T12:46:55.136Z,94.30
2019-01-13T12:47:55.126Z,94.30
2019-01-13T12:48:55.118Z,93.89
2019-01-13T12:49:55.105Z,93.89
2019-01-13T12:50:55.114Z,94.24
2019-01-13T12:51:55.081Z,94.24
2019-01-13T12:52:55.079Z,94.20